createdAt,value
2017-06-28T00:00:30.737Z,8.30
2017-06-28T00:02:59.845Z,5.30
2017-06-28T00:05:28.894Z,6.20
2017-06-28T00:07:57.175Z,5.47
2017-06-28T00:10:25.505Z,6.43
2017-06-28T00:12:53.793Z,4.97
2017-06-28T00:15:22.075Z,5.10
2017-06-28T00:17:50.410Z,9.73
2017-06-28T00:20:18.690Z,7.57
2017-06-28T00:22:47.772Z,12.77
2017-06-28T00:25:16.078Z,8.87
2017-06-28T00:27:45.126Z,5.27
2017-06-28T00:30:13.455Z,7.53
2017-06-28T00:32:42.508Z,5.53
2017-06-28T00:35:10.791Z,9.27
2017-06-28T00:37:39.089Z,8.17
2017-06-28T00:40:08.138Z,5.00
2017-06-28T00:42:36.495Z,6.70
2017-06-28T00:45:04.774Z,6.40
2017-06-28T00:47:33.054Z,7.13
2017-06-28T00:50:01.471Z,6.20
2017-06-28T00:52:29.763Z,5.30
2017-06-28T00:54:58.091Z,5.20
2017-06-28T00:57:26.372Z,7.80
2017-06-28T00:59:54.650Z,12.97
2017-06-28T01:02:22.987Z,10.97
2017-06-28T01:04:52.030Z,6.87
2017-06-28T01:07:20.343Z,7.43
2017-06-28T01:09:48.679Z,9.10
2017-06-28T01:12:16.950Z,6.17
2017-06-28T01:14:45.243Z,8.03
2017-06-28T01:17:13.583Z,8.73
2017-06-28T01:19:41.875Z,4.63
2017-06-28T01:22:10.168Z,5.83
2017-06-28T01:24:38.486Z,4.57
2017-06-28T01:27:07.539Z,5.63
2017-06-28T01:29:35.828Z,9.83
2017-06-28T01:32:04.167Z,5.40
2017-06-28T01:34:32.454Z,7.27
2017-06-28T01:37:00.729Z,6.80
2017-06-28T01:39:29.051Z,12.63
2017-06-28T01:41:57.375Z,9.80
2017-06-28T01:44:25.665Z,10.30
2017-06-28T01:46:53.992Z,4.53
2017-06-28T01:49:22.284Z,6.53
2017-06-28T01:51:51.371Z,6.43
2017-06-28T01:54:20.510Z,5.67
2017-06-28T01:56:48.778Z,7.40
2017-06-28T01:59:17.068Z,6.27
2017-06-28T02:01:45.404Z,7.03
2017-06-28T02:04:14.499Z,10.73
2017-06-28T02:06:43.552Z,5.30
2017-06-28T02:09:11.826Z,8.50
2017-06-28T02:11:40.160Z,7.90
2017-06-28T02:14:08.439Z,7.90
2017-06-28T02:16:36.731Z,8.23
2017-06-28T02:19:05.048Z,7.40
2017-06-28T02:21:33.376Z,11.97
2017-06-28T02:24:01.650Z,5.90
2017-06-28T02:26:29.995Z,7.57
2017-06-28T02:28:58.279Z,6.27
2017-06-28T02:31:27.318Z,7.17
2017-06-28T02:33:55.651Z,5.93
2017-06-28T02:36:24.752Z,6.37
2017-06-28T02:38:53.794Z,8.50
2017-06-28T02:41:22.074Z,7.13
2017-06-28T02:43:51.093Z,6.73
2017-06-28T02:46:19.376Z,5.30
2017-06-28T02:48:47.709Z,11.90
2017-06-28T02:51:15.995Z,5.57
2017-06-28T02:53:46.896Z,9.00
2017-06-28T02:56:15.242Z,8.57
2017-06-28T02:58:43.528Z,6.07
2017-06-28T03:01:12.620Z,6.10
2017-06-28T03:03:40.889Z,6.37
2017-06-28T03:06:09.219Z,8.30
2017-06-28T03:08:37.645Z,6.23
2017-06-28T03:11:05.964Z,8.07
2017-06-28T03:13:34.242Z,6.30
2017-06-28T03:16:02.570Z,5.17
2017-06-28T03:18:30.886Z,9.90
2017-06-28T03:20:59.166Z,6.60
2017-06-28T03:23:27.489Z,8.40
2017-06-28T03:25:55.783Z,7.47
2017-06-28T03:28:24.059Z,9.67
2017-06-28T03:30:52.383Z,6.63
2017-06-28T03:33:20.661Z,7.73
2017-06-28T03:35:49.012Z,8.23
2017-06-28T03:38:18.056Z,9.90
2017-06-28T03:40:46.371Z,6.60
2017-06-28T03:43:14.647Z,7.77
2017-06-28T03:45:42.963Z,6.07
2017-06-28T03:48:11.246Z,7.60
2017-06-28T03:50:39.570Z,7.70
2017-06-28T03:53:07.898Z,6.00
2017-06-28T03:55:36.221Z,7.47
2017-06-28T03:58:04.491Z,5.30
2017-06-28T04:00:32.828Z,7.50
2017-06-28T04:03:01.113Z,8.93
2017-06-28T04:05:29.396Z,6.10
2017-06-28T04:07:57.709Z,7.57
2017-06-28T04:10:26.035Z,5.47
2017-06-28T04:12:54.319Z,8.90
2017-06-28T04:15:22.594Z,9.00
2017-06-28T04:17:50.923Z,12.10
2017-06-28T04:20:19.233Z,8.67
2017-06-28T04:22:47.511Z,7.63
2017-06-28T04:25:15.856Z,6.30
2017-06-28T04:27:44.143Z,9.37
2017-06-28T04:30:13.227Z,8.80
2017-06-28T04:32:41.533Z,6.97
2017-06-28T04:35:09.820Z,6.90
2017-06-28T04:37:38.133Z,5.93
2017-06-28T04:40:06.414Z,7.53
2017-06-28T04:42:34.743Z,6.70
2017-06-28T04:45:03.017Z,8.67
2017-06-28T04:47:31.330Z,8.80
2017-06-28T04:49:59.616Z,6.20
2017-06-28T04:52:27.954Z,7.47
2017-06-28T04:54:56.227Z,7.70
2017-06-28T04:57:24.515Z,7.13
2017-06-28T04:59:52.860Z,5.87
2017-06-28T05:02:21.916Z,11.30
2017-06-28T05:04:50.248Z,9.60
2017-06-28T05:07:18.534Z,9.60
2017-06-28T05:09:46.856Z,8.13
2017-06-28T05:12:15.176Z,7.40
2017-06-28T05:14:43.469Z,8.67
2017-06-28T05:17:11.807Z,9.90
2017-06-28T05:19:40.073Z,9.67
2017-06-28T05:22:08.354Z,7.20
2017-06-28T05:24:36.675Z,6.43
2017-06-28T05:27:05.016Z,11.57
2017-06-28T05:29:34.063Z,11.70
2017-06-28T05:32:02.359Z,10.70
2017-06-28T05:34:30.678Z,18.13
2017-06-28T05:36:58.975Z,12.17
2017-06-28T05:39:27.259Z,7.70
2017-06-28T05:41:55.596Z,7.83
2017-06-28T05:44:23.870Z,8.80
2017-06-28T05:46:52.918Z,11.63
2017-06-28T05:49:21.248Z,11.80
2017-06-28T05:51:50.339Z,15.50
2017-06-28T05:54:19.438Z,10.10
2017-06-28T05:56:47.723Z,8.70
2017-06-28T05:59:16.776Z,13.03
2017-06-28T06:01:45.121Z,8.47
2017-06-28T06:04:13.415Z,8.70
2017-06-28T06:06:41.694Z,8.43
2017-06-28T06:09:10.028Z,7.73
2017-06-28T06:11:39.065Z,9.40
2017-06-28T06:14:07.345Z,7.93
2017-06-28T06:16:35.675Z,12.47
2017-06-28T06:19:04.728Z,8.07
2017-06-28T06:21:33.016Z,9.97
2017-06-28T06:24:01.366Z,7.80
2017-06-28T06:26:29.716Z,10.13
2017-06-28T06:28:58.007Z,11.10
2017-06-28T06:31:26.292Z,8.27
2017-06-28T06:33:54.677Z,14.13
2017-06-28T06:36:22.972Z,8.43
2017-06-28T06:38:51.246Z,10.77
2017-06-28T06:41:19.577Z,7.00
2017-06-28T06:43:47.918Z,6.77
2017-06-28T06:46:16.194Z,9.73
2017-06-28T06:48:44.470Z,6.70
2017-06-28T06:51:12.793Z,14.90
2017-06-28T06:53:41.086Z,7.97
2017-06-28T06:56:09.381Z,8.57
2017-06-28T06:58:37.691Z,7.87
2017-06-28T07:01:06.743Z,7.20
2017-06-28T07:03:35.079Z,7.20
2017-06-28T07:06:03.364Z,9.50
2017-06-28T07:08:31.655Z,6.70
2017-06-28T07:11:00.045Z,8.60
2017-06-28T07:13:28.331Z,7.73
2017-06-28T07:15:56.617Z,9.13
2017-06-28T07:18:24.930Z,7.40
2017-06-28T07:20:53.974Z,8.60
2017-06-28T07:23:22.307Z,7.90
2017-06-28T07:25:51.349Z,7.33
2017-06-28T07:28:19.641Z,11.50
2017-06-28T07:30:47.974Z,8.03
2017-06-28T07:33:16.253Z,9.80
2017-06-28T07:35:44.561Z,9.70
2017-06-28T07:38:12.915Z,7.20
2017-06-28T07:40:41.201Z,9.80
2017-06-28T07:43:09.488Z,9.60
2017-06-28T07:45:37.817Z,9.47
2017-06-28T07:48:06.873Z,9.13
2017-06-28T07:50:35.149Z,10.43
2017-06-28T07:53:03.478Z,8.70
2017-06-28T07:55:31.767Z,7.30
2017-06-28T07:58:00.055Z,8.73
2017-06-28T08:00:28.396Z,7.27
2017-06-28T08:02:57.442Z,7.73
2017-06-28T08:05:25.726Z,9.80
2017-06-28T08:07:54.051Z,7.90
2017-06-28T08:10:22.334Z,7.77
2017-06-28T08:12:50.622Z,7.93
2017-06-28T08:15:18.949Z,9.27
2017-06-28T08:17:47.218Z,7.90
2017-06-28T08:20:15.497Z,7.50
2017-06-28T08:22:43.835Z,6.70
2017-06-28T08:25:12.120Z,7.70
2017-06-28T08:27:40.413Z,7.67
2017-06-28T08:30:08.753Z,8.53
2017-06-28T08:32:37.039Z,7.43
2017-06-28T08:35:05.329Z,7.80
2017-06-28T08:37:33.641Z,8.57
2017-06-28T08:40:01.976Z,7.00
2017-06-28T08:42:30.306Z,9.50
2017-06-28T08:44:58.594Z,7.20
2017-06-28T08:47:27.684Z,7.80
2017-06-28T08:49:56.784Z,7.83
2017-06-28T08:52:25.826Z,7.63
2017-06-28T08:54:54.101Z,7.03
2017-06-28T08:57:22.448Z,6.50
2017-06-28T08:59:50.723Z,7.40
2017-06-28T09:02:19.012Z,8.40
2017-06-28T09:04:47.335Z,7.00
2017-06-28T09:07:15.626Z,7.17
2017-06-28T09:09:43.920Z,8.97
2017-06-28T09:12:13.013Z,8.63
2017-06-28T09:14:41.487Z,9.00
2017-06-28T09:17:09.775Z,7.23
2017-06-28T09:19:38.859Z,8.17
2017-06-28T09:22:07.133Z,8.70
2017-06-28T09:24:36.246Z,8.53
2017-06-28T09:27:04.537Z,7.43
2017-06-28T09:29:32.813Z,9.33
2017-06-28T09:32:01.148Z,10.53
2017-06-28T09:34:29.429Z,8.90
2017-06-28T09:36:58.484Z,11.80
2017-06-28T09:39:26.824Z,7.70
2017-06-28T09:41:55.620Z,8.53
2017-06-28T09:44:23.900Z,7.00
2017-06-28T09:46:52.239Z,8.13
2017-06-28T09:49:20.531Z,7.00
2017-06-28T09:51:50.409Z,7.10
2017-06-28T09:54:18.733Z,7.53
2017-06-28T09:56:47.011Z,11.00
2017-06-28T09:59:15.340Z,7.57
2017-06-28T10:01:44.114Z,9.10
2017-06-28T10:04:12.999Z,6.67
2017-06-28T10:06:41.340Z,7.53
2017-06-28T10:09:10.495Z,7.77
2017-06-28T10:11:38.818Z,6.87
2017-06-28T10:14:07.455Z,10.63
2017-06-28T10:16:36.063Z,7.10
2017-06-28T10:19:04.410Z,8.67
2017-06-28T10:21:32.779Z,9.63
2017-06-28T10:24:01.307Z,11.60
2017-06-28T10:26:31.122Z,8.87
2017-06-28T10:29:00.627Z,7.40
2017-06-28T10:31:28.939Z,7.90
2017-06-28T10:33:57.272Z,8.30
2017-06-28T10:36:25.544Z,7.67
2017-06-28T10:38:53.823Z,8.50
2017-06-28T10:41:22.165Z,7.20
2017-06-28T10:43:50.451Z,8.03
2017-06-28T10:46:18.735Z,9.63
2017-06-28T10:48:47.060Z,7.30
2017-06-28T10:51:15.383Z,11.53
2017-06-28T10:53:43.697Z,8.80
2017-06-28T10:56:12.759Z,11.83
2017-06-28T10:58:41.053Z,7.73
2017-06-28T11:01:09.361Z,7.33
2017-06-28T11:03:37.686Z,9.23
2017-06-28T11:06:06.003Z,8.67
2017-06-28T11:08:35.090Z,7.17
2017-06-28T11:11:03.542Z,8.93
2017-06-28T11:13:31.871Z,7.80
2017-06-28T11:16:01.059Z,8.33
2017-06-28T11:18:30.116Z,8.70
2017-06-28T11:20:58.511Z,7.93
2017-06-28T11:23:26.791Z,7.97
2017-06-28T11:25:55.207Z,7.63
2017-06-28T11:28:27.244Z,8.20
2017-06-28T11:30:55.755Z,8.00
2017-06-28T11:33:25.010Z,7.90
2017-06-28T11:35:54.250Z,8.30
2017-06-28T11:38:22.635Z,7.07
2017-06-28T11:40:50.973Z,7.87
2017-06-28T11:43:19.318Z,6.90
2017-06-28T11:45:47.722Z,7.00
2017-06-28T11:48:16.052Z,6.67
2017-06-28T11:50:44.380Z,8.50
2017-06-28T11:53:12.744Z,9.80
2017-06-28T11:55:41.023Z,7.23
2017-06-28T11:58:09.339Z,7.33
2017-06-28T12:00:38.478Z,6.47
2017-06-28T12:03:06.770Z,11.13
2017-06-28T12:05:35.056Z,7.80
2017-06-28T12:08:03.378Z,6.30
2017-06-28T12:10:31.668Z,5.83
2017-06-28T12:12:59.994Z,6.57
2017-06-28T12:15:28.271Z,6.27
2017-06-28T12:17:56.563Z,7.33
2017-06-28T12:20:25.651Z,11.03
2017-06-28T12:22:53.948Z,7.03
2017-06-28T12:25:23.067Z,5.67
2017-06-28T12:27:51.356Z,6.50
2017-06-28T12:30:19.631Z,6.40
2017-06-28T12:32:47.950Z,9.37
2017-06-28T12:35:16.283Z,7.50
2017-06-28T12:37:44.564Z,7.90
2017-06-28T12:40:12.837Z,7.63
2017-06-28T12:42:41.163Z,7.43
2017-06-28T12:45:10.206Z,8.50
2017-06-28T12:47:38.548Z,6.93
2017-06-28T12:50:07.586Z,8.30
2017-06-28T12:52:35.863Z,8.07
2017-06-28T12:55:04.192Z,7.30
2017-06-28T12:57:33.238Z,7.00
2017-06-28T13:00:01.561Z,6.93
2017-06-28T13:02:30.662Z,8.23
2017-06-28T13:04:59.701Z,6.80
2017-06-28T13:07:27.995Z,7.20
2017-06-28T13:09:56.311Z,7.23
2017-06-28T13:12:25.408Z,8.07
2017-06-28T13:14:54.447Z,7.33
2017-06-28T13:17:22.735Z,6.87
2017-06-28T13:19:51.071Z,7.17
2017-06-28T13:22:19.349Z,7.57
2017-06-28T13:24:47.627Z,7.40
2017-06-28T13:27:15.974Z,9.73
2017-06-28T13:29:45.023Z,6.47
2017-06-28T13:32:13.311Z,8.20
2017-06-28T13:34:41.641Z,6.90
2017-06-28T13:37:09.981Z,8.50
2017-06-28T13:39:38.272Z,8.53
2017-06-28T13:42:06.563Z,10.57
2017-06-28T13:44:35.655Z,6.00
2017-06-28T13:47:04.714Z,6.97
2017-06-28T13:49:33.044Z,11.67
2017-06-28T13:52:01.342Z,8.43
2017-06-28T13:54:29.622Z,7.33
2017-06-28T13:56:57.986Z,8.70
2017-06-28T13:59:26.279Z,7.57
2017-06-28T14:01:54.566Z,7.10
2017-06-28T14:04:22.895Z,8.13
2017-06-28T14:06:51.992Z,9.87
2017-06-28T14:09:21.053Z,9.10
2017-06-28T14:11:49.330Z,9.40
2017-06-28T14:14:17.646Z,9.53
2017-06-28T14:16:45.974Z,8.90
2017-06-28T14:19:14.263Z,8.67
2017-06-28T14:21:42.604Z,15.63
2017-06-28T14:24:10.889Z,8.57
2017-06-28T14:26:39.179Z,12.00
2017-06-28T14:29:07.511Z,9.17
2017-06-28T14:31:36.551Z,10.33
2017-06-28T14:34:04.826Z,9.07
2017-06-28T14:36:33.155Z,10.17
2017-06-28T14:39:02.259Z,10.00
2017-06-28T14:41:30.551Z,9.27
2017-06-28T14:43:58.834Z,13.13
2017-06-28T14:46:27.165Z,10.37
2017-06-28T14:48:56.267Z,10.73
2017-06-28T14:51:25.316Z,12.50
2017-06-28T14:53:53.599Z,9.73
2017-06-28T14:56:21.940Z,9.30
2017-06-28T14:58:50.219Z,10.67
2017-06-28T15:01:18.562Z,10.27
2017-06-28T15:03:47.613Z,10.43
2017-06-28T15:06:15.904Z,9.30
2017-06-28T15:08:44.250Z,10.70
2017-06-28T15:11:12.543Z,10.37
2017-06-28T15:13:40.814Z,9.73
2017-06-28T15:16:09.141Z,10.07
2017-06-28T15:18:38.222Z,10.47
2017-06-28T15:21:06.510Z,10.43
2017-06-28T15:23:35.616Z,10.57
2017-06-28T15:26:04.662Z,11.07
2017-06-28T15:28:33.865Z,10.87
2017-06-28T15:31:02.283Z,10.40
2017-06-28T15:33:31.380Z,11.53
2017-06-28T15:36:00.473Z,11.37
2017-06-28T15:38:29.592Z,15.17
2017-06-28T15:40:57.879Z,11.07
2017-06-28T15:43:26.171Z,13.37
2017-06-28T15:45:54.507Z,11.87
2017-06-28T15:48:23.620Z,13.23
2017-06-28T15:50:51.911Z,14.60
2017-06-28T15:53:20.215Z,12.77
2017-06-28T15:56:00.519Z,15.50
2017-06-28T15:58:28.815Z,14.03
2017-06-28T16:00:57.163Z,18.20
2017-06-28T16:03:26.229Z,15.47
2017-06-28T16:05:54.519Z,14.63
2017-06-28T16:08:22.871Z,13.60
2017-06-28T16:10:51.163Z,13.27
2017-06-28T16:13:19.459Z,14.60
2017-06-28T16:15:48.572Z,13.17
2017-06-28T16:18:16.874Z,12.87
2017-06-28T16:20:45.162Z,13.60
2017-06-28T16:23:13.499Z,13.57
2017-06-28T16:25:41.800Z,16.63
2017-06-28T16:28:10.127Z,14.90
2017-06-28T16:30:38.414Z,13.53
2017-06-28T16:33:07.479Z,16.57
2017-06-28T16:35:35.806Z,15.13
2017-06-28T16:38:04.102Z,16.33
2017-06-28T16:40:32.448Z,15.00
2017-06-28T16:43:01.512Z,16.77
2017-06-28T16:45:29.799Z,16.83
2017-06-28T16:47:58.142Z,18.50
2017-06-28T16:50:26.443Z,19.53
2017-06-28T16:52:54.743Z,18.30
2017-06-28T16:55:23.840Z,21.10
2017-06-28T16:57:52.916Z,20.87
2017-06-28T17:00:21.275Z,22.77
2017-06-28T17:02:49.587Z,23.87
2017-06-28T17:05:18.087Z,24.57
2017-06-28T17:07:47.189Z,23.90
2017-06-28T17:10:15.535Z,26.97
2017-06-28T17:12:43.831Z,25.00
2017-06-28T17:15:12.175Z,25.73
2017-06-28T17:17:40.499Z,26.10
2017-06-28T17:20:08.795Z,24.37
2017-06-28T17:22:37.166Z,29.37
2017-06-28T17:25:05.488Z,29.50
2017-06-28T17:27:33.799Z,27.80
2017-06-28T17:30:02.908Z,27.10
2017-06-28T17:32:31.203Z,28.03
2017-06-28T17:34:59.559Z,32.83
2017-06-28T17:37:27.868Z,39.17
2017-06-28T17:39:56.159Z,32.80
2017-06-28T17:42:25.299Z,31.50
2017-06-28T17:44:54.425Z,32.73
2017-06-28T17:47:22.757Z,31.73
2017-06-28T17:49:51.124Z,32.30
2017-06-28T17:52:19.453Z,37.70
2017-06-28T17:54:47.752Z,35.20
2017-06-28T17:57:16.092Z,32.43
2017-06-28T17:59:44.384Z,31.60
2017-06-28T18:02:12.736Z,33.10
2017-06-28T18:04:41.084Z,35.57
2017-06-28T18:07:10.341Z,35.10
2017-06-28T18:09:38.670Z,33.73
2017-06-28T18:12:07.825Z,31.10
2017-06-28T18:14:36.161Z,33.97
2017-06-28T18:17:04.509Z,34.93
2017-06-28T18:19:32.826Z,31.90
2017-06-28T18:22:01.923Z,31.80
2017-06-28T18:24:30.223Z,33.03
2017-06-28T18:26:58.556Z,36.60
2017-06-28T18:29:26.852Z,35.83
2017-06-28T18:31:56.051Z,35.57
2017-06-28T18:34:24.348Z,33.90
2017-06-28T18:36:52.653Z,38.10
2017-06-28T18:39:21.954Z,36.30
2017-06-28T18:41:50.257Z,38.50
2017-06-28T18:44:18.651Z,35.43
2017-06-28T18:46:47.759Z,39.40
2017-06-28T18:49:16.820Z,36.53
2017-06-28T18:51:45.115Z,39.57
2017-06-28T18:54:14.225Z,35.17
2017-06-28T18:56:43.317Z,34.57
2017-06-28T18:59:12.487Z,38.80
2017-06-28T19:01:40.816Z,36.03
2017-06-28T19:04:09.102Z,36.70
2017-06-28T19:06:37.459Z,35.80
2017-06-28T19:09:05.802Z,36.53
2017-06-28T19:11:34.198Z,42.80
2017-06-28T19:14:03.359Z,41.37
2017-06-28T19:16:31.658Z,37.80
2017-06-28T19:18:59.955Z,40.43
2017-06-28T19:21:29.139Z,40.17
2017-06-28T19:23:58.350Z,50.50
2017-06-28T19:26:27.443Z,44.27
2017-06-28T19:28:56.532Z,38.83
2017-06-28T19:31:25.594Z,47.17
2017-06-28T19:33:54.008Z,40.60
2017-06-28T19:36:23.091Z,38.80
2017-06-28T19:38:51.440Z,42.57
2017-06-28T19:41:19.735Z,44.93
2017-06-28T19:43:48.023Z,40.70
2017-06-28T19:46:16.412Z,44.27
2017-06-28T19:48:45.516Z,47.03
2017-06-28T19:51:14.579Z,43.40
2017-06-28T19:53:42.879Z,46.20
2017-06-28T19:56:11.984Z,44.60
2017-06-28T19:58:41.043Z,45.37
2017-06-28T20:01:09.395Z,43.40
2017-06-28T20:03:37.723Z,43.20
2017-06-28T20:06:06.819Z,37.70
2017-06-28T20:08:36.020Z,43.40
2017-06-28T20:11:05.299Z,42.37
2017-06-28T20:13:33.687Z,41.30
2017-06-28T20:16:01.966Z,41.53
2017-06-28T20:18:31.253Z,42.90
2017-06-28T20:20:59.584Z,41.50
2017-06-28T20:23:27.867Z,38.57
2017-06-28T20:25:56.154Z,43.20
2017-06-28T20:28:24.587Z,37.73
2017-06-28T20:30:53.639Z,36.80
2017-06-28T20:33:21.977Z,38.63
2017-06-28T20:35:50.267Z,40.00
2017-06-28T20:38:18.612Z,33.43
2017-06-28T20:40:47.679Z,34.40
2017-06-28T20:43:16.064Z,43.60
2017-06-28T20:45:44.408Z,38.87
2017-06-28T20:48:12.839Z,39.27
2017-06-28T20:50:41.135Z,37.83
2017-06-28T20:53:09.583Z,36.60
2017-06-28T20:55:38.641Z,46.20
2017-06-28T20:58:06.979Z,42.83
2017-06-28T21:00:35.283Z,43.33
2017-06-28T21:03:03.579Z,44.03
2017-06-28T21:05:31.920Z,46.17
2017-06-28T21:08:00.292Z,40.43
2017-06-28T21:10:28.630Z,39.97
2017-06-28T21:12:56.918Z,38.77
2017-06-28T21:15:26.032Z,42.57
2017-06-28T21:17:54.322Z,36.33
2017-06-28T21:20:22.605Z,39.23
2017-06-28T21:22:50.937Z,36.63
2017-06-28T21:25:19.235Z,39.07
2017-06-28T21:27:48.336Z,42.00
2017-06-28T21:30:16.670Z,42.27
2017-06-28T21:32:44.963Z,40.47
2017-06-28T21:35:13.247Z,40.70
2017-06-28T21:37:42.344Z,42.00
2017-06-28T21:40:11.419Z,38.90
2017-06-28T21:42:39.755Z,39.33
2017-06-28T21:45:08.046Z,35.77
2017-06-28T21:47:36.337Z,35.83
2017-06-28T21:50:04.663Z,39.67
2017-06-28T21:52:32.953Z,37.03
2017-06-28T21:58:00.211Z,33.80
2017-06-28T22:00:28.519Z,39.20
2017-06-28T22:02:56.806Z,35.80
2017-06-28T22:05:25.132Z,32.47
2017-06-28T22:07:54.195Z,34.17
2017-06-28T22:13:21.182Z,33.87
2017-06-28T22:15:49.496Z,34.10
2017-06-28T22:18:30.434Z,37.03
2017-06-28T22:20:58.774Z,38.30
2017-06-28T22:23:27.083Z,46.33
2017-06-28T22:26:01.391Z,44.80
2017-06-28T22:28:29.705Z,39.73
2017-06-28T22:30:58.056Z,41.37
2017-06-28T22:33:27.182Z,38.30
2017-06-28T22:35:56.257Z,39.50
2017-06-28T22:38:25.349Z,43.40
2017-06-28T22:40:54.049Z,41.27
2017-06-28T22:43:22.383Z,44.73
2017-06-28T22:45:51.544Z,39.77
2017-06-28T22:48:19.851Z,91.97
2017-06-28T22:50:48.217Z,43.40
2017-06-28T22:53:16.563Z,64.37
2017-06-28T22:55:45.673Z,49.67
2017-06-28T22:58:14.015Z,49.07
2017-06-28T23:00:42.325Z,66.40
2017-06-28T23:03:10.658Z,74.40
2017-06-28T23:05:38.995Z,77.83
2017-06-28T23:08:07.297Z,56.90
2017-06-28T23:10:35.638Z,63.93
2017-06-28T23:13:03.942Z,46.50
2017-06-28T23:15:32.284Z,60.83
2017-06-28T23:18:01.344Z,75.80
2017-06-28T23:20:29.693Z,95.50
2017-06-28T23:22:58.754Z,65.37
2017-06-28T23:25:27.059Z,63.27
2017-06-28T23:27:55.407Z,68.80
2017-06-28T23:30:23.701Z,53.77
2017-06-28T23:32:52.042Z,55.47
2017-06-28T23:35:20.354Z,51.63
2017-06-28T23:37:49.463Z,51.07
2017-06-28T23:40:17.944Z,46.40
2017-06-28T23:42:47.003Z,48.20
2017-06-28T23:45:15.339Z,41.63
2017-06-28T23:47:44.420Z,41.93
2017-06-28T23:50:12.762Z,48.10
2017-06-28T23:52:41.067Z,44.37
2017-06-28T23:55:09.385Z,39.80
2017-06-28T23:57:37.746Z,38.40
